createdAt,value
2018-07-25T00:02:23.170Z,99.20
2018-07-25T00:04:52.415Z,99.60
2018-07-25T00:09:50.678Z,99.90
2018-07-25T00:12:20.529Z,99.90
2018-07-25T00:14:49.804Z,99.90
2018-07-25T00:17:18.929Z,99.90
2018-07-25T00:19:48.106Z,99.90
2018-07-25T00:22:17.213Z,99.90
2018-07-25T00:24:46.504Z,99.90
2018-07-25T00:27:15.721Z,99.90
2018-07-25T00:32:13.799Z,99.90
2018-07-25T00:34:42.853Z,99.90
2018-07-25T00:37:11.955Z,99.90
2018-07-25T00:39:40.928Z,99.90
2018-07-25T00:42:10.070Z,99.90
2018-07-25T00:44:39.255Z,99.90
2018-07-25T00:49:37.058Z,99.90
2018-07-25T00:52:06.278Z,99.90
2018-07-25T00:54:35.337Z,99.90
2018-07-25T00:59:33.782Z,99.90
2018-07-25T01:02:04.022Z,99.90
2018-07-25T01:07:03.248Z,99.90
2018-07-25T01:09:32.889Z,99.90
2018-07-25T01:12:02.821Z,99.90
2018-07-25T01:14:32.478Z,99.90
2018-07-25T01:17:05.303Z,99.90
2018-07-25T01:19:35.451Z,99.90
2018-07-25T01:22:05.281Z,99.90
2018-07-25T01:24:35.532Z,99.90
2018-07-25T01:27:05.355Z,99.90
2018-07-25T01:32:04.698Z,99.90
2018-07-25T01:34:34.380Z,99.90
2018-07-25T01:37:05.094Z,99.90
2018-07-25T01:39:35.048Z,99.90
2018-07-25T01:42:04.703Z,99.90
2018-07-25T01:44:34.390Z,99.90
2018-07-25T01:47:04.062Z,99.90
2018-07-25T01:49:34.250Z,99.90
2018-07-25T01:52:04.152Z,99.90
2018-07-25T01:54:33.695Z,99.90
2018-07-25T01:57:03.440Z,99.90
2018-07-25T01:59:33.419Z,99.90
2018-07-25T02:02:02.981Z,99.90
2018-07-25T02:04:32.666Z,99.90
2018-07-25T02:07:02.264Z,99.90
2018-07-25T02:09:31.960Z,99.90
2018-07-25T02:12:01.895Z,99.90
2018-07-25T02:14:31.721Z,99.90
2018-07-25T02:22:00.233Z,99.90
2018-07-25T02:24:29.250Z,99.90
2018-07-25T02:26:58.283Z,99.90
2018-07-25T02:29:27.239Z,99.90
2018-07-25T02:31:56.199Z,99.90
2018-07-25T02:34:25.214Z,99.90
2018-07-25T02:36:54.270Z,99.90
2018-07-25T02:39:23.514Z,99.90
2018-07-25T02:46:50.024Z,99.90
2018-07-25T02:49:19.022Z,99.90
2018-07-25T02:51:48.133Z,99.90
2018-07-25T02:56:45.968Z,99.90
2018-07-25T02:59:14.978Z,99.90
2018-07-25T03:01:44.697Z,99.90
2018-07-25T03:04:13.683Z,99.90
2018-07-25T03:06:42.714Z,99.90
2018-07-25T03:09:11.697Z,99.90
2018-07-25T03:11:42.134Z,99.90
2018-07-25T03:14:11.325Z,99.90
2018-07-25T03:16:40.424Z,99.90
2018-07-25T03:19:09.445Z,99.90
2018-07-25T03:21:38.443Z,99.90
2018-07-25T03:24:07.447Z,99.90
2018-07-25T03:26:36.527Z,99.90
2018-07-25T03:31:34.477Z,99.90
2018-07-25T03:34:03.564Z,99.90
2018-07-25T03:36:32.779Z,99.90
2018-07-25T03:39:01.840Z,99.90
2018-07-25T03:41:30.879Z,99.90
2018-07-25T03:44:00.104Z,99.90
2018-07-25T03:48:57.711Z,99.90
2018-07-25T03:51:26.859Z,99.90
2018-07-25T03:56:26.175Z,99.90
2018-07-25T03:58:55.426Z,99.90
2018-07-25T04:01:24.624Z,99.90
2018-07-25T04:03:54.019Z,99.90
2018-07-25T04:06:23.431Z,99.90
2018-07-25T04:08:52.472Z,99.90
2018-07-25T04:11:21.795Z,99.90
2018-07-25T04:13:51.111Z,99.90
2018-07-25T04:16:20.214Z,98.30
2018-07-25T04:21:18.133Z,92.60
2018-07-25T04:23:47.373Z,90.40
2018-07-25T04:26:16.436Z,86.70
2018-07-25T04:28:45.596Z,81.70
2018-07-25T04:31:14.748Z,77.20
2018-07-25T04:33:44.004Z,74.00
2018-07-25T04:36:13.110Z,69.10
2018-07-25T04:38:42.370Z,66.10
2018-07-25T04:41:11.409Z,63.20
2018-07-25T04:43:40.448Z,61.60
2018-07-25T04:46:09.501Z,60.30
2018-07-25T04:48:38.657Z,58.60
2018-07-25T04:51:07.924Z,56.70
2018-07-25T04:53:40.033Z,55.00
2018-07-25T04:56:09.136Z,53.80
2018-07-25T04:58:38.281Z,52.50
2018-07-25T05:01:07.345Z,51.50
2018-07-25T05:03:36.532Z,50.40
2018-07-25T05:06:05.798Z,49.30
2018-07-25T05:08:35.165Z,48.70
2018-07-25T05:11:04.406Z,47.40
2018-07-25T05:13:33.785Z,46.30
2018-07-25T05:16:03.120Z,45.60
2018-07-25T05:21:01.144Z,44.20
2018-07-25T05:23:30.461Z,43.50
2018-07-25T05:25:59.672Z,43.10
2018-07-25T05:28:28.857Z,42.60
2018-07-25T05:30:58.204Z,41.60
2018-07-25T05:33:27.485Z,41.00
2018-07-25T05:35:56.783Z,39.80
2018-07-25T05:38:25.961Z,39.30
2018-07-25T05:40:55.206Z,38.70
2018-07-25T05:43:24.593Z,37.90
2018-07-25T05:48:22.837Z,36.90
2018-07-25T05:50:52.470Z,35.90
2018-07-25T05:53:22.667Z,35.70
2018-07-25T05:55:51.929Z,35.10
2018-07-25T05:58:21.121Z,35.80
2018-07-25T06:00:50.353Z,35.40
2018-07-25T06:03:19.685Z,35.20
2018-07-25T06:05:48.935Z,34.60
2018-07-25T06:08:17.976Z,33.60
2018-07-25T06:10:47.281Z,32.80
2018-07-25T06:13:16.682Z,31.80
2018-07-25T06:15:45.845Z,31.60
2018-07-25T06:18:15.000Z,31.10
2018-07-25T06:25:41.461Z,29.90
2018-07-25T06:28:10.966Z,29.20
2018-07-25T06:30:39.983Z,28.60
2018-07-25T06:33:09.234Z,28.20
2018-07-25T06:35:39.664Z,28.70
2018-07-25T06:38:08.701Z,28.40
2018-07-25T06:40:37.855Z,27.70
2018-07-25T06:43:07.120Z,27.30
2018-07-25T06:45:36.437Z,27.30
2018-07-25T06:48:05.627Z,27.00
2018-07-25T06:50:34.850Z,26.20
2018-07-25T06:53:04.449Z,26.30
2018-07-25T06:55:38.938Z,26.30
2018-07-25T06:58:08.144Z,25.80
2018-07-25T07:03:06.261Z,25.00
2018-07-25T07:05:35.440Z,25.10
2018-07-25T07:08:04.512Z,24.90
2018-07-25T07:10:33.623Z,25.20
2018-07-25T07:15:34.646Z,24.30
2018-07-25T07:23:01.493Z,23.80
2018-07-25T07:25:30.591Z,23.10
2018-07-25T07:27:59.954Z,22.90
2018-07-25T07:30:29.179Z,23.40
2018-07-25T07:32:58.412Z,23.90
2018-07-25T07:35:31.653Z,23.10
2018-07-25T07:38:00.979Z,22.60
2018-07-25T07:40:30.892Z,22.70
2018-07-25T07:43:00.191Z,21.70
2018-07-25T07:45:29.590Z,21.50
2018-07-25T07:47:58.638Z,21.20
2018-07-25T07:50:27.739Z,20.90
2018-07-25T07:55:26.462Z,20.50
2018-07-25T07:57:55.787Z,20.60
2018-07-25T08:00:24.788Z,20.40
2018-07-25T08:02:53.845Z,20.10
2018-07-25T08:05:22.912Z,20.10
2018-07-25T08:07:52.048Z,20.20
2018-07-25T08:10:21.128Z,19.80
2018-07-25T08:15:21.958Z,18.90
2018-07-25T08:17:51.033Z,18.40
2018-07-25T08:20:20.308Z,17.70
2018-07-25T08:22:49.586Z,17.90
2018-07-25T08:27:47.562Z,18.60
2018-07-25T08:30:16.680Z,18.10
2018-07-25T08:32:45.687Z,17.40
2018-07-25T08:35:20.212Z,16.80
2018-07-25T08:37:49.238Z,16.60
2018-07-25T08:40:18.430Z,16.40
2018-07-25T08:42:47.508Z,16.70
2018-07-25T08:45:16.564Z,16.60
2018-07-25T08:50:14.564Z,17.20
2018-07-25T08:52:43.760Z,17.30
2018-07-25T08:55:12.697Z,18.00
2018-07-25T08:57:41.803Z,18.50
2018-07-25T09:00:10.746Z,18.70
2018-07-25T09:02:42.688Z,18.70
2018-07-25T09:05:11.805Z,19.00
2018-07-25T09:07:41.389Z,19.10
2018-07-25T09:10:10.431Z,18.60
2018-07-25T09:12:39.649Z,18.20
2018-07-25T09:15:08.666Z,17.60
2018-07-25T09:17:37.720Z,17.60
2018-07-25T09:20:06.743Z,17.30
2018-07-25T09:25:07.373Z,16.70
2018-07-25T09:27:36.582Z,17.10
2018-07-25T09:30:07.075Z,17.00
2018-07-25T09:32:36.386Z,16.90
2018-07-25T09:35:05.587Z,16.60
2018-07-25T09:37:34.557Z,17.00
2018-07-25T09:40:03.937Z,17.30
2018-07-25T09:42:33.128Z,17.00
2018-07-25T09:45:02.162Z,17.10
2018-07-25T09:47:31.510Z,17.00
2018-07-25T09:50:02.117Z,17.00
2018-07-25T09:52:31.341Z,16.90
2018-07-25T09:55:00.500Z,17.00
2018-07-25T09:57:30.542Z,17.10
2018-07-25T10:00:00.110Z,17.30
2018-07-25T10:02:29.405Z,16.80
2018-07-25T10:07:27.379Z,16.10
2018-07-25T10:09:59.225Z,16.70
2018-07-25T10:12:28.406Z,17.70
2018-07-25T10:17:26.477Z,17.20
2018-07-25T10:22:24.435Z,18.70
2018-07-25T10:24:53.757Z,19.00
2018-07-25T10:29:52.021Z,18.20
2018-07-25T10:32:21.232Z,17.90
2018-07-25T10:34:50.620Z,17.40
2018-07-25T10:37:19.648Z,16.80
2018-07-25T10:39:48.741Z,18.10
2018-07-25T10:42:17.840Z,19.70
2018-07-25T10:44:47.767Z,19.30
2018-07-25T10:47:16.817Z,18.70
2018-07-25T10:49:47.176Z,17.60
2018-07-25T10:52:16.313Z,16.60
2018-07-25T10:54:45.530Z,16.10
2018-07-25T10:57:14.656Z,15.60
2018-07-25T10:59:43.834Z,15.30
2018-07-25T11:02:12.962Z,15.10
2018-07-25T11:07:10.993Z,15.10
2018-07-25T11:12:11.813Z,16.70
2018-07-25T11:14:40.802Z,17.30
2018-07-25T11:17:09.857Z,17.10
2018-07-25T11:22:07.740Z,17.40
2018-07-25T11:24:36.975Z,17.70
2018-07-25T11:27:06.027Z,18.40
2018-07-25T11:29:35.334Z,18.80
2018-07-25T11:32:04.688Z,19.30
2018-07-25T11:34:34.063Z,20.00
2018-07-25T11:37:03.284Z,20.40
2018-07-25T11:42:01.211Z,20.30
2018-07-25T11:44:30.511Z,19.80
2018-07-25T11:49:28.200Z,20.20
2018-07-25T11:54:25.989Z,20.00
2018-07-25T11:59:23.936Z,20.10
2018-07-25T12:01:54.676Z,20.30
2018-07-25T12:06:52.525Z,19.80
2018-07-25T12:09:21.701Z,19.20
2018-07-25T12:11:50.872Z,19.20
2018-07-25T12:14:19.980Z,19.40
2018-07-25T12:16:49.102Z,19.30
2018-07-25T12:19:18.291Z,19.30
2018-07-25T12:21:47.576Z,19.30
2018-07-25T12:24:16.863Z,19.20
2018-07-25T12:26:45.962Z,19.00
2018-07-25T12:29:15.487Z,19.10
2018-07-25T12:31:44.610Z,19.50
2018-07-25T12:34:15.273Z,19.90
2018-07-25T12:36:44.403Z,20.70
2018-07-25T12:39:13.597Z,21.00
2018-07-25T12:41:42.864Z,21.30
2018-07-25T12:44:12.151Z,21.80
2018-07-25T12:46:41.173Z,22.10
2018-07-25T12:49:10.313Z,23.10
2018-07-25T12:51:39.521Z,23.00
2018-07-25T12:54:14.047Z,22.90
2018-07-25T12:56:43.276Z,22.90
2018-07-25T12:59:12.394Z,22.20
2018-07-25T13:01:41.521Z,21.90
2018-07-25T13:04:10.807Z,21.80
2018-07-25T13:06:43.718Z,21.70
2018-07-25T13:09:13.247Z,21.30
2018-07-25T13:14:11.251Z,21.10
2018-07-25T13:16:40.673Z,20.90
2018-07-25T13:19:09.863Z,20.90
2018-07-25T13:21:39.085Z,21.40
2018-07-25T13:24:08.467Z,21.00
2018-07-25T13:26:39.277Z,20.70
2018-07-25T13:29:08.609Z,21.00
2018-07-25T13:31:38.041Z,20.90
2018-07-25T13:34:07.353Z,20.50
2018-07-25T13:36:37.192Z,21.50
2018-07-25T13:41:36.327Z,22.70
2018-07-25T13:44:05.692Z,22.80
2018-07-25T13:49:04.857Z,24.80
2018-07-25T13:51:34.300Z,25.90
2018-07-25T13:54:03.459Z,26.20
2018-07-25T13:56:32.705Z,26.30
2018-07-25T13:59:01.860Z,26.60
2018-07-25T14:01:31.201Z,26.90
2018-07-25T14:04:00.424Z,27.40
2018-07-25T14:06:29.749Z,27.20
2018-07-25T14:08:58.917Z,27.30
2018-07-25T14:11:28.159Z,28.10
2018-07-25T14:13:57.363Z,28.20
2018-07-25T14:16:26.556Z,28.40
2018-07-25T14:18:55.760Z,27.60
2018-07-25T14:21:24.924Z,27.90
2018-07-25T14:23:54.294Z,27.70
2018-07-25T14:26:23.335Z,27.70
2018-07-25T14:28:52.807Z,27.70
2018-07-25T14:31:24.558Z,28.20
2018-07-25T14:33:53.733Z,27.80
2018-07-25T14:36:22.921Z,28.10
2018-07-25T14:38:52.092Z,27.50
2018-07-25T14:41:21.332Z,27.40
2018-07-25T14:46:19.483Z,26.80
2018-07-25T14:48:48.597Z,26.80
2018-07-25T14:51:19.292Z,26.80
2018-07-25T14:53:48.591Z,27.20
2018-07-25T14:56:17.845Z,27.10
2018-07-25T14:58:47.058Z,27.30
2018-07-25T15:01:16.387Z,27.20
2018-07-25T15:03:45.861Z,27.50
2018-07-25T15:06:15.136Z,27.10
2018-07-25T15:08:44.251Z,27.10
2018-07-25T15:11:14.404Z,27.00
2018-07-25T15:13:43.616Z,27.60
2018-07-25T15:16:12.756Z,27.60
2018-07-25T15:18:42.014Z,27.80
2018-07-25T15:21:11.228Z,27.80
2018-07-25T15:23:51.707Z,27.90
2018-07-25T15:26:20.680Z,28.10
2018-07-25T15:28:49.921Z,28.30
2018-07-25T15:31:19.634Z,28.00
2018-07-25T15:33:49.133Z,27.80
2018-07-25T15:36:51.445Z,27.90
2018-07-25T15:39:23.891Z,27.40
2018-07-25T15:41:54.140Z,28.30
2018-07-25T15:44:24.778Z,29.00
2018-07-25T15:46:54.838Z,29.50
2018-07-25T15:49:29.816Z,29.50
2018-07-25T15:51:59.555Z,29.40
2018-07-25T15:54:28.814Z,29.20
2018-07-25T15:56:58.174Z,28.90
2018-07-25T15:59:27.381Z,29.00
2018-07-25T16:01:56.724Z,29.20
2018-07-25T16:04:26.272Z,29.20
2018-07-25T16:06:55.813Z,29.30
2018-07-25T16:09:26.624Z,29.60
2018-07-25T16:11:56.206Z,29.60
2018-07-25T16:14:25.692Z,29.70
2018-07-25T16:16:55.454Z,29.90
2018-07-25T16:19:24.841Z,30.10
2018-07-25T16:21:54.422Z,30.30
2018-07-25T16:24:23.767Z,30.50
2018-07-25T16:29:23.556Z,30.80
2018-07-25T16:31:52.797Z,30.80
2018-07-25T16:34:22.137Z,31.10
2018-07-25T16:36:51.798Z,31.10
2018-07-25T16:39:21.476Z,31.50
2018-07-25T16:41:50.758Z,31.70
2018-07-25T16:44:20.513Z,32.10
2018-07-25T16:46:50.513Z,32.50
2018-07-25T16:51:50.173Z,32.10
2018-07-25T16:54:19.590Z,32.20
2018-07-25T16:56:49.025Z,32.90
2018-07-25T16:59:18.256Z,33.20
2018-07-25T17:01:47.614Z,32.50
2018-07-25T17:04:17.339Z,33.00
2018-07-25T17:06:46.727Z,32.90
2018-07-25T17:09:15.994Z,33.30
2018-07-25T17:11:45.483Z,33.80
2018-07-25T17:14:14.780Z,34.30
2018-07-25T17:16:44.051Z,34.60
2018-07-25T17:19:13.260Z,35.30
2018-07-25T17:21:45.515Z,36.00
2018-07-25T17:24:14.650Z,36.20
2018-07-25T17:26:43.975Z,36.90
2018-07-25T17:29:13.213Z,36.90
2018-07-25T17:31:42.628Z,38.00
2018-07-25T17:34:11.950Z,38.10
2018-07-25T17:36:41.243Z,37.60
2018-07-25T17:39:11.809Z,36.70
2018-07-25T17:41:43.761Z,36.10
2018-07-25T17:44:13.432Z,36.10
2018-07-25T17:46:42.762Z,36.70
2018-07-25T17:49:11.926Z,38.30
2018-07-25T17:51:41.180Z,38.20
2018-07-25T17:54:11.848Z,38.70
2018-07-25T17:56:41.272Z,38.90
2018-07-25T17:59:10.752Z,38.80
2018-07-25T18:04:10.605Z,39.60
2018-07-25T18:06:40.172Z,40.20
2018-07-25T18:09:10.298Z,40.20
2018-07-25T18:11:39.672Z,40.20
2018-07-25T18:16:45.523Z,40.60
2018-07-25T18:19:16.133Z,40.80
2018-07-25T18:21:45.973Z,40.90
2018-07-25T18:24:16.071Z,41.00
2018-07-25T18:26:45.411Z,41.40
2018-07-25T18:29:15.088Z,41.40
2018-07-25T18:31:45.148Z,41.40
2018-07-25T18:34:17.998Z,41.30
2018-07-25T18:36:48.145Z,41.80
2018-07-25T18:39:18.343Z,42.30
2018-07-25T18:41:48.455Z,43.20
2018-07-25T18:44:19.284Z,43.60
2018-07-25T18:46:49.556Z,44.50
2018-07-25T18:49:19.656Z,46.20
2018-07-25T18:51:49.769Z,47.20
2018-07-25T18:54:19.302Z,47.50
2018-07-25T18:56:48.669Z,47.20
2018-07-25T18:59:18.776Z,47.80
2018-07-25T19:01:49.298Z,48.80
2018-07-25T19:04:19.266Z,48.90
2018-07-25T19:06:50.808Z,48.60
2018-07-25T19:09:20.280Z,48.70
2018-07-25T19:11:49.687Z,49.20
2018-07-25T19:16:53.401Z,49.90
2018-07-25T19:19:23.729Z,50.40
2018-07-25T19:21:53.186Z,50.90
2018-07-25T19:24:22.650Z,50.90
2018-07-25T19:29:21.109Z,52.20
2018-07-25T19:31:51.276Z,52.00
2018-07-25T19:34:20.631Z,53.10
2018-07-25T19:36:49.892Z,53.90
2018-07-25T19:39:19.105Z,55.20
2018-07-25T19:44:17.219Z,55.10
2018-07-25T19:46:46.642Z,55.50
2018-07-25T19:49:15.911Z,58.20
2018-07-25T19:54:15.723Z,65.50
2018-07-25T19:56:45.027Z,70.00
2018-07-25T19:59:14.275Z,69.50
2018-07-25T20:01:43.516Z,67.30
2018-07-25T20:04:12.605Z,64.70
2018-07-25T20:06:41.916Z,65.10
2018-07-25T20:09:11.134Z,64.20
2018-07-25T20:16:44.641Z,65.30
2018-07-25T20:19:13.803Z,65.70
2018-07-25T20:21:43.097Z,65.40
2018-07-25T20:24:13.916Z,66.10
2018-07-25T20:26:43.126Z,66.20
2018-07-25T20:29:12.302Z,66.10
2018-07-25T20:31:41.547Z,66.40
2018-07-25T20:34:10.733Z,66.90
2018-07-25T20:36:45.547Z,67.50
2018-07-25T20:39:14.893Z,69.40
2018-07-25T20:41:44.060Z,69.30
2018-07-25T20:44:13.573Z,69.60
2018-07-25T20:46:43.067Z,70.40
2018-07-25T20:49:13.946Z,69.70
2018-07-25T20:51:43.339Z,68.80
2018-07-25T20:54:12.815Z,69.00
2018-07-25T20:59:10.994Z,71.60
2018-07-25T21:01:40.225Z,73.40
2018-07-25T21:04:09.316Z,76.20
2018-07-25T21:06:38.637Z,75.90
2018-07-25T21:09:09.416Z,74.90
2018-07-25T21:11:38.782Z,74.50
2018-07-25T21:16:36.681Z,70.80
2018-07-25T21:19:06.008Z,65.10
2018-07-25T21:21:35.248Z,60.00
2018-07-25T21:24:04.497Z,56.00
2018-07-25T21:26:33.880Z,61.00
2018-07-25T21:29:04.797Z,63.80
2018-07-25T21:31:34.112Z,64.70
2018-07-25T21:34:09.785Z,63.30
2018-07-25T21:36:39.199Z,61.40
2018-07-25T21:41:38.770Z,60.20
2018-07-25T21:44:08.401Z,60.00
2018-07-25T21:49:07.211Z,62.70
2018-07-25T21:51:36.471Z,61.90
2018-07-25T21:54:05.838Z,61.70
2018-07-25T21:56:35.109Z,62.20
2018-07-25T21:59:04.435Z,63.50
2018-07-25T22:01:34.885Z,64.00
2018-07-25T22:04:04.395Z,64.30
2018-07-25T22:06:33.602Z,64.80
2018-07-25T22:09:02.927Z,65.30
2018-07-25T22:11:32.137Z,65.80
2018-07-25T22:14:02.885Z,66.20
2018-07-25T22:16:32.208Z,66.60
2018-07-25T22:21:30.115Z,67.40
2018-07-25T22:23:59.405Z,67.80
2018-07-25T22:28:58.472Z,68.80
2018-07-25T22:33:56.556Z,75.20
2018-07-25T22:36:25.750Z,80.10
2018-07-25T22:38:54.813Z,85.10
2018-07-25T22:41:23.922Z,90.30
2018-07-25T22:46:23.032Z,95.40
2018-07-25T22:48:52.337Z,96.00
2018-07-25T22:51:21.565Z,96.80
2018-07-25T22:53:50.918Z,97.10
2018-07-25T22:56:20.153Z,96.90
2018-07-25T22:58:49.317Z,96.90
2018-07-25T23:01:18.631Z,97.50
2018-07-25T23:06:19.150Z,98.20
2018-07-25T23:08:48.210Z,98.10
2018-07-25T23:11:17.296Z,97.90
2018-07-25T23:13:46.905Z,97.50
2018-07-25T23:16:17.349Z,97.60
2018-07-25T23:18:47.000Z,97.10
2018-07-25T23:21:16.240Z,96.30
2018-07-25T23:23:45.356Z,95.50
2018-07-25T23:26:15.633Z,95.20
2018-07-25T23:28:44.728Z,95.20
2018-07-25T23:31:13.953Z,94.80
2018-07-25T23:33:43.232Z,94.60
2018-07-25T23:36:12.441Z,94.70
2018-07-25T23:38:44.296Z,95.10
2018-07-25T23:41:13.387Z,95.40
2018-07-25T23:43:42.489Z,95.60
2018-07-25T23:46:11.732Z,95.80
2018-07-25T23:48:41.100Z,96.00
2018-07-25T23:51:10.220Z,95.70
2018-07-25T23:53:39.267Z,95.30
2018-07-25T23:56:08.420Z,94.60
2018-07-25T23:58:40.645Z,94.20
